createdAt,value
2018-09-03T00:01:44.941Z,6.13
2018-09-03T00:04:14.284Z,10.87
2018-09-03T00:06:43.235Z,6.70
2018-09-03T00:09:12.190Z,7.30
2018-09-03T00:11:40.751Z,9.70
2018-09-03T00:14:09.291Z,7.13
2018-09-03T00:16:38.274Z,7.63
2018-09-03T00:19:06.865Z,7.47
2018-09-03T00:21:35.329Z,8.40
2018-09-03T00:24:03.856Z,7.37
2018-09-03T00:26:32.327Z,7.27
2018-09-03T00:29:01.513Z,6.73
2018-09-03T00:31:35.506Z,9.60
2018-09-03T00:34:09.357Z,7.83
2018-09-03T00:36:43.214Z,9.57
2018-09-03T00:39:17.143Z,8.20
2018-09-03T00:41:51.076Z,9.47
2018-09-03T00:44:25.044Z,10.23
2018-09-03T00:46:59.222Z,10.53
2018-09-03T00:49:27.832Z,10.53
2018-09-03T00:51:56.665Z,10.57
2018-09-03T00:54:25.309Z,10.57
2018-09-03T00:56:53.931Z,10.30
2018-09-03T00:59:22.580Z,10.83
2018-09-03T01:01:51.210Z,13.90
2018-09-03T01:04:19.703Z,11.60
2018-09-03T01:06:48.306Z,13.37
2018-09-03T01:09:16.936Z,10.93
2018-09-03T01:11:45.591Z,13.83
2018-09-03T01:14:14.221Z,14.37
2018-09-03T01:16:42.831Z,13.97
2018-09-03T01:19:11.422Z,14.87
2018-09-03T01:21:39.966Z,13.43
2018-09-03T01:24:08.603Z,13.33
2018-09-03T01:26:37.828Z,14.10
2018-09-03T01:29:06.387Z,12.80
2018-09-03T01:31:34.963Z,14.03
2018-09-03T01:34:03.543Z,15.10
2018-09-03T01:36:32.079Z,15.87
2018-09-03T01:39:00.651Z,14.97
2018-09-03T01:41:29.162Z,14.43
2018-09-03T01:43:57.776Z,15.33
2018-09-03T01:46:26.328Z,14.70
2018-09-03T01:48:54.940Z,14.50
2018-09-03T01:51:23.542Z,16.40
2018-09-03T01:53:52.108Z,17.37
2018-09-03T01:56:20.661Z,19.20
2018-09-03T01:58:49.250Z,17.07
2018-09-03T02:01:17.822Z,17.90
2018-09-03T02:03:46.388Z,23.03
2018-09-03T02:06:15.278Z,20.33
2018-09-03T02:08:43.896Z,17.63
2018-09-03T02:11:12.454Z,19.33
2018-09-03T02:13:41.002Z,18.83
2018-09-03T02:16:09.748Z,18.97
2018-09-03T02:18:38.659Z,19.63
2018-09-03T02:21:07.524Z,20.43
2018-09-03T02:23:36.239Z,21.90
2018-09-03T02:26:04.784Z,20.03
2018-09-03T02:28:33.545Z,21.43
2018-09-03T02:31:02.240Z,21.13
2018-09-03T02:33:30.870Z,23.30
2018-09-03T02:35:59.386Z,26.10
2018-09-03T02:38:27.912Z,23.93
2018-09-03T02:40:56.594Z,22.83
2018-09-03T02:43:25.270Z,23.73
2018-09-03T02:45:54.100Z,27.80
2018-09-03T02:48:22.659Z,25.07
2018-09-03T02:50:51.290Z,25.93
2018-09-03T02:53:19.863Z,26.77
2018-09-03T02:55:48.408Z,26.77
2018-09-03T02:58:16.944Z,25.57
2018-09-03T03:00:45.495Z,25.07
2018-09-03T03:03:13.990Z,26.60
2018-09-03T03:05:42.481Z,28.10
2018-09-03T03:08:11.164Z,30.17
2018-09-03T03:10:40.633Z,27.10
2018-09-03T03:13:09.216Z,25.20
2018-09-03T03:15:38.245Z,23.33
2018-09-03T03:18:06.771Z,25.73
2018-09-03T03:20:35.262Z,24.77
2018-09-03T03:23:03.820Z,24.27
2018-09-03T03:25:32.335Z,25.17
2018-09-03T03:28:00.881Z,21.80
2018-09-03T03:30:29.385Z,21.67
2018-09-03T03:32:57.929Z,22.77
2018-09-03T03:35:26.493Z,22.60
2018-09-03T03:37:55.049Z,21.70
2018-09-03T03:40:23.937Z,20.87
2018-09-03T03:42:52.581Z,23.13
2018-09-03T03:45:21.077Z,19.40
2018-09-03T03:47:49.588Z,21.03
2018-09-03T03:50:18.105Z,20.23
2018-09-03T03:52:46.757Z,19.43
2018-09-03T03:55:15.446Z,21.20
2018-09-03T03:57:43.857Z,22.33
2018-09-03T04:00:12.549Z,23.47
2018-09-03T04:02:41.084Z,20.60
2018-09-03T04:05:09.872Z,20.40
2018-09-03T04:07:38.646Z,20.93
2018-09-03T04:10:08.254Z,21.80
2018-09-03T04:12:36.793Z,22.73
2018-09-03T04:15:05.525Z,20.57
2018-09-03T04:17:34.045Z,21.07
2018-09-03T04:20:04.341Z,20.73
2018-09-03T04:22:33.737Z,22.83
2018-09-03T04:25:03.110Z,19.10
2018-09-03T04:27:31.614Z,19.17
2018-09-03T04:30:00.117Z,18.60
2018-09-03T04:32:28.690Z,18.77
2018-09-03T04:34:57.189Z,18.90
2018-09-03T04:37:25.843Z,19.00
2018-09-03T04:39:54.482Z,19.23
2018-09-03T04:42:23.242Z,19.20
2018-09-03T04:44:51.824Z,19.37
2018-09-03T04:47:20.619Z,19.10
2018-09-03T04:49:49.151Z,20.10
2018-09-03T04:52:17.655Z,20.90
2018-09-03T04:54:46.289Z,18.60
2018-09-03T04:57:14.722Z,18.57
2018-09-03T04:59:43.393Z,22.90
2018-09-03T05:02:12.168Z,19.77
2018-09-03T05:04:41.018Z,19.83
2018-09-03T05:07:09.649Z,18.23
2018-09-03T05:09:38.221Z,18.00
2018-09-03T05:12:06.884Z,17.97
2018-09-03T05:14:35.633Z,18.90
2018-09-03T05:17:04.735Z,18.03
2018-09-03T05:19:33.281Z,18.23
2018-09-03T05:22:01.763Z,16.20
2018-09-03T05:24:30.367Z,16.20
2018-09-03T05:26:58.943Z,19.30
2018-09-03T05:29:27.473Z,18.33
2018-09-03T05:31:56.127Z,16.63
2018-09-03T05:34:24.738Z,14.30
2018-09-03T05:36:53.264Z,16.70
2018-09-03T05:39:21.818Z,15.97
2018-09-03T05:41:50.331Z,14.77
2018-09-03T05:44:18.898Z,17.77
2018-09-03T05:46:47.445Z,15.37
2018-09-03T05:49:15.927Z,13.83
2018-09-03T05:51:45.105Z,16.27
2018-09-03T05:54:13.622Z,14.40
2018-09-03T05:56:42.122Z,14.87
2018-09-03T05:59:10.655Z,13.87
2018-09-03T06:01:39.080Z,12.20
2018-09-03T06:04:08.260Z,13.70
2018-09-03T06:06:36.732Z,13.97
2018-09-03T06:09:08.573Z,13.63
2018-09-03T06:11:37.185Z,14.33
2018-09-03T06:14:05.628Z,13.47
2018-09-03T06:16:34.159Z,11.77
2018-09-03T06:19:02.684Z,12.87
2018-09-03T06:21:31.263Z,12.30
2018-09-03T06:23:59.969Z,12.30
2018-09-03T06:26:28.562Z,11.33
2018-09-03T06:28:57.077Z,13.27
2018-09-03T06:31:25.594Z,12.33
2018-09-03T06:33:54.534Z,15.17
2018-09-03T06:36:23.128Z,12.07
2018-09-03T06:38:51.762Z,11.00
2018-09-03T06:41:20.274Z,11.27
2018-09-03T06:43:48.955Z,10.00
2018-09-03T06:46:19.163Z,11.10
2018-09-03T06:48:48.078Z,10.27
2018-09-03T06:51:17.433Z,13.83
2018-09-03T06:53:47.322Z,13.97
2018-09-03T06:56:20.485Z,13.87
2018-09-03T06:58:49.090Z,10.93
2018-09-03T07:01:17.750Z,12.03
2018-09-03T07:03:46.490Z,11.87
2018-09-03T07:06:15.192Z,11.97
2018-09-03T07:08:43.676Z,9.10
2018-09-03T07:11:13.486Z,12.60
2018-09-03T07:13:42.407Z,12.07
2018-09-03T07:16:11.108Z,12.87
2018-09-03T07:18:39.683Z,10.73
2018-09-03T07:21:09.029Z,10.43
2018-09-03T07:23:37.550Z,9.57
2018-09-03T07:26:06.118Z,12.37
2018-09-03T07:28:35.462Z,11.60
2018-09-03T07:31:04.046Z,12.43
2018-09-03T07:33:33.285Z,9.93
2018-09-03T07:36:01.822Z,11.23
2018-09-03T07:38:30.491Z,8.33
2018-09-03T07:40:59.017Z,12.53
2018-09-03T07:43:27.544Z,9.73
2018-09-03T07:45:56.068Z,9.73
2018-09-03T07:48:24.697Z,9.13
2018-09-03T07:50:53.439Z,9.97
2018-09-03T07:53:22.067Z,11.13
2018-09-03T07:55:51.142Z,10.33
2018-09-03T07:58:19.648Z,9.97
2018-09-03T08:00:48.194Z,13.07
2018-09-03T08:03:16.689Z,8.93
2018-09-03T08:05:45.294Z,9.20
2018-09-03T08:08:13.825Z,11.27
2018-09-03T08:10:42.904Z,11.73
2018-09-03T08:13:15.590Z,10.10
2018-09-03T08:15:44.313Z,10.30
2018-09-03T08:18:12.829Z,12.10
2018-09-03T08:20:41.540Z,11.37
2018-09-03T08:23:10.248Z,11.17
2018-09-03T08:25:38.750Z,14.70
2018-09-03T08:28:07.298Z,15.37
2018-09-03T08:30:36.052Z,10.93
2018-09-03T08:33:05.374Z,8.97
2018-09-03T08:35:34.307Z,7.77
2018-09-03T08:38:03.676Z,11.47
2018-09-03T08:40:32.347Z,12.30
2018-09-03T08:43:02.025Z,11.57
2018-09-03T08:45:30.527Z,13.90
2018-09-03T08:47:59.726Z,10.47
2018-09-03T08:50:28.411Z,10.10
2018-09-03T08:52:56.889Z,13.83
2018-09-03T08:55:25.474Z,10.37
2018-09-03T08:57:54.085Z,14.43
2018-09-03T09:00:22.590Z,11.67
2018-09-03T09:02:51.761Z,10.40
2018-09-03T09:05:21.411Z,11.23
2018-09-03T09:07:49.985Z,14.30
2018-09-03T09:10:18.561Z,11.20
2018-09-03T09:12:47.114Z,9.07
2018-09-03T09:15:15.587Z,10.60
2018-09-03T09:17:44.144Z,10.53
2018-09-03T09:20:12.770Z,12.53
2018-09-03T09:22:41.312Z,12.27
2018-09-03T09:25:09.869Z,11.87
2018-09-03T09:27:38.929Z,11.57
2018-09-03T09:30:07.484Z,9.47
2018-09-03T09:32:35.989Z,10.63
2018-09-03T09:35:04.549Z,13.73
2018-09-03T09:37:33.148Z,10.23
2018-09-03T09:40:01.718Z,10.57
2018-09-03T09:42:30.240Z,15.83
2018-09-03T09:44:58.838Z,13.10
2018-09-03T09:47:28.056Z,11.63
2018-09-03T09:49:56.554Z,12.50
2018-09-03T09:52:25.737Z,12.17
2018-09-03T09:54:54.571Z,10.90
2018-09-03T09:57:23.029Z,12.20
2018-09-03T09:59:51.563Z,10.73
2018-09-03T10:02:20.033Z,6.83
2018-09-03T10:04:48.488Z,9.03
2018-09-03T10:07:16.988Z,9.27
2018-09-03T10:09:45.656Z,10.80
2018-09-03T10:12:18.475Z,10.67
2018-09-03T10:14:47.040Z,6.10
2018-09-03T10:17:15.576Z,10.43
2018-09-03T10:19:44.127Z,9.60
2018-09-03T10:22:12.590Z,11.83
2018-09-03T10:24:41.136Z,10.63
2018-09-03T10:27:09.867Z,10.97
2018-09-03T10:29:38.422Z,9.90
2018-09-03T10:32:06.980Z,10.33
2018-09-03T10:34:35.482Z,8.70
2018-09-03T10:37:04.206Z,10.17
2018-09-03T10:39:33.352Z,9.17
2018-09-03T10:42:02.016Z,11.17
2018-09-03T10:44:31.008Z,5.50
2018-09-03T10:46:59.725Z,10.17
2018-09-03T10:49:28.698Z,10.13
2018-09-03T10:51:57.642Z,11.27
2018-09-03T10:54:26.854Z,9.37
2018-09-03T10:56:55.369Z,9.70
2018-09-03T10:59:23.808Z,8.87
2018-09-03T11:01:52.430Z,9.83
2018-09-03T11:04:20.909Z,12.80
2018-09-03T11:06:49.452Z,10.60
2018-09-03T11:09:18.521Z,8.53
2018-09-03T11:11:46.974Z,9.90
2018-09-03T11:14:15.504Z,10.80
2018-09-03T11:16:43.976Z,11.47
2018-09-03T11:19:12.433Z,5.20
2018-09-03T11:21:41.023Z,5.63
2018-09-03T11:24:09.494Z,7.27
2018-09-03T11:26:37.975Z,5.73
2018-09-03T11:29:06.483Z,9.53
2018-09-03T11:31:35.077Z,5.70
2018-09-03T11:34:03.615Z,8.40
2018-09-03T11:36:33.028Z,6.93
2018-09-03T11:39:01.488Z,8.20
2018-09-03T11:41:30.272Z,11.13
2018-09-03T11:43:58.818Z,12.57
2018-09-03T11:46:27.389Z,13.13
2018-09-03T11:48:56.037Z,10.00
2018-09-03T11:51:25.349Z,9.07
2018-09-03T11:53:53.832Z,9.23
2018-09-03T11:56:22.456Z,11.97
2018-09-03T11:58:51.081Z,11.63
2018-09-03T12:01:19.712Z,13.90
2018-09-03T12:03:48.205Z,13.73
2018-09-03T12:06:16.776Z,13.40
2018-09-03T12:08:45.346Z,14.07
2018-09-03T12:11:13.981Z,13.40
2018-09-03T12:13:42.456Z,12.53
2018-09-03T12:16:12.360Z,11.63
2018-09-03T12:18:41.902Z,13.90
2018-09-03T12:21:10.938Z,12.00
2018-09-03T12:23:39.703Z,14.13
2018-09-03T12:26:08.718Z,11.73
2018-09-03T12:28:37.263Z,13.47
2018-09-03T12:31:06.080Z,10.97
2018-09-03T12:33:35.062Z,11.00
2018-09-03T12:36:04.297Z,11.13
2018-09-03T12:38:33.143Z,13.20
2018-09-03T12:41:01.846Z,16.43
2018-09-03T12:43:30.467Z,10.00
2018-09-03T12:46:02.330Z,14.33
2018-09-03T12:48:31.524Z,11.07
2018-09-03T12:51:00.890Z,8.23
2018-09-03T12:53:29.929Z,8.67
2018-09-03T12:55:59.461Z,12.03
2018-09-03T12:58:27.941Z,9.03
2018-09-03T13:00:56.658Z,7.23
2018-09-03T13:03:25.242Z,8.47
2018-09-03T13:05:53.933Z,9.57
2018-09-03T13:08:22.347Z,7.50
2018-09-03T13:10:51.562Z,8.57
2018-09-03T13:13:20.109Z,11.60
2018-09-03T13:15:48.945Z,8.07
2018-09-03T13:18:17.532Z,8.80
2018-09-03T13:20:46.182Z,7.80
2018-09-03T13:23:14.828Z,5.53
2018-09-03T13:25:43.552Z,6.93
2018-09-03T13:28:12.187Z,13.67
2018-09-03T13:30:40.672Z,9.80
2018-09-03T13:33:09.270Z,9.53
2018-09-03T13:35:37.950Z,10.07
2018-09-03T13:38:06.401Z,9.70
2018-09-03T13:40:35.307Z,13.90
2018-09-03T13:43:03.820Z,11.17
2018-09-03T13:45:32.318Z,9.80
2018-09-03T13:48:00.816Z,12.70
2018-09-03T13:50:29.483Z,11.27
2018-09-03T13:52:58.897Z,12.60
2018-09-03T13:55:27.444Z,9.83
2018-09-03T13:57:55.987Z,11.23
2018-09-03T14:00:24.705Z,9.03
2018-09-03T14:02:53.271Z,7.70
2018-09-03T14:05:21.847Z,8.17
2018-09-03T14:07:50.442Z,10.20
2018-09-03T14:10:23.657Z,12.60
2018-09-03T14:12:52.343Z,7.77
2018-09-03T14:15:20.933Z,8.57
2018-09-03T14:17:49.469Z,6.80
2018-09-03T14:20:18.003Z,8.07
2018-09-03T14:22:46.541Z,10.47
2018-09-03T14:25:16.611Z,7.13
2018-09-03T14:27:45.228Z,8.93
2018-09-03T14:30:13.821Z,6.63
2018-09-03T14:32:42.357Z,8.80
2018-09-03T14:35:11.308Z,9.17
2018-09-03T14:37:39.830Z,8.67
2018-09-03T14:40:08.351Z,9.20
2018-09-03T14:42:36.885Z,9.13
2018-09-03T14:45:05.568Z,8.83
2018-09-03T14:47:34.793Z,9.73
2018-09-03T14:50:03.608Z,10.27
2018-09-03T14:52:32.261Z,13.10
2018-09-03T14:55:00.848Z,12.63
2018-09-03T14:57:31.045Z,7.63
2018-09-03T14:59:59.790Z,8.73
2018-09-03T15:02:28.457Z,7.13
2018-09-03T15:04:57.102Z,7.97
2018-09-03T15:07:28.005Z,8.10
2018-09-03T15:09:57.367Z,13.43
2018-09-03T15:12:26.004Z,11.97
2018-09-03T15:14:56.015Z,8.47
2018-09-03T15:17:25.428Z,8.13
2018-09-03T15:19:54.106Z,7.77
2018-09-03T15:22:22.802Z,8.17
2018-09-03T15:24:51.525Z,7.97
2018-09-03T15:27:21.525Z,13.83
2018-09-03T15:29:52.321Z,11.80
2018-09-03T15:32:26.301Z,11.17
2018-09-03T15:34:55.731Z,9.43
2018-09-03T15:40:08.391Z,7.40
2018-09-03T15:42:37.102Z,11.50
2018-09-03T15:45:06.300Z,8.70
2018-09-03T15:47:35.738Z,8.83
2018-09-03T15:50:04.403Z,12.23
2018-09-03T15:52:33.022Z,10.17
2018-09-03T15:55:01.845Z,12.30
2018-09-03T15:57:30.540Z,10.57
2018-09-03T15:59:59.425Z,11.57
2018-09-03T16:02:29.109Z,11.00
2018-09-03T16:04:57.731Z,9.97
2018-09-03T16:07:26.569Z,12.27
2018-09-03T16:09:56.149Z,10.43
2018-09-03T16:12:24.753Z,13.00
2018-09-03T16:14:53.305Z,10.17
2018-09-03T16:17:21.995Z,14.47
2018-09-03T16:19:50.790Z,12.67
2018-09-03T16:22:19.467Z,10.90
2018-09-03T16:24:48.022Z,12.63
2018-09-03T16:27:16.756Z,10.00
2018-09-03T16:29:45.350Z,10.40
2018-09-03T16:32:18.051Z,11.30
2018-09-03T16:34:47.884Z,11.77
2018-09-03T16:37:16.525Z,10.23
2018-09-03T16:39:46.306Z,9.53
2018-09-03T16:42:15.376Z,6.43
2018-09-03T16:44:43.874Z,10.83
2018-09-03T16:47:12.522Z,12.27
2018-09-03T16:49:41.097Z,9.13
2018-09-03T16:52:09.597Z,13.40
2018-09-03T16:54:38.090Z,9.63
2018-09-03T16:57:07.465Z,11.67
2018-09-03T16:59:36.160Z,9.47
2018-09-03T17:02:05.585Z,12.30
2018-09-03T17:04:35.182Z,9.13
2018-09-03T17:07:03.824Z,16.03
2018-09-03T17:09:33.030Z,8.03
2018-09-03T17:12:01.569Z,9.90
2018-09-03T17:14:35.013Z,8.73
2018-09-03T17:17:03.594Z,10.53
2018-09-03T17:19:32.122Z,10.47
2018-09-03T17:22:00.656Z,10.70
2018-09-03T17:24:29.231Z,7.40
2018-09-03T17:26:57.814Z,6.83
2018-09-03T17:29:26.363Z,12.07
2018-09-03T17:31:54.969Z,12.73
2018-09-03T17:34:23.520Z,9.47
2018-09-03T17:36:52.284Z,10.60
2018-09-03T17:39:20.869Z,13.27
2018-09-03T17:41:49.667Z,12.50
2018-09-03T17:44:18.204Z,14.60
2018-09-03T17:46:46.729Z,12.07
2018-09-03T17:49:15.365Z,13.60
2018-09-03T17:51:43.882Z,11.60
2018-09-03T17:54:13.173Z,11.80
2018-09-03T17:56:42.635Z,14.17
2018-09-03T17:59:11.537Z,14.77
2018-09-03T18:01:40.098Z,14.97
2018-09-03T18:04:08.653Z,13.13
2018-09-03T18:06:37.206Z,13.80
2018-09-03T18:09:06.366Z,10.80
2018-09-03T18:11:35.935Z,15.00
2018-09-03T18:14:04.554Z,14.43
2018-09-03T18:16:33.265Z,14.23
2018-09-03T18:19:03.154Z,11.73
2018-09-03T18:21:31.874Z,12.93
2018-09-03T18:24:00.503Z,13.77
2018-09-03T18:26:29.096Z,11.60
2018-09-03T18:28:58.674Z,17.93
2018-09-03T18:31:27.294Z,14.13
2018-09-03T18:33:55.941Z,17.10
2018-09-03T18:36:24.579Z,12.47
2018-09-03T18:38:53.136Z,14.07
2018-09-03T18:41:21.854Z,13.40
2018-09-03T18:43:50.545Z,14.23
2018-09-03T18:46:19.428Z,17.83
2018-09-03T18:48:51.275Z,13.67
2018-09-03T18:51:20.232Z,13.53
2018-09-03T18:53:49.132Z,21.23
2018-09-03T18:56:18.164Z,13.30
2018-09-03T18:58:47.106Z,13.83
2018-09-03T19:01:15.974Z,16.20
2018-09-03T19:03:45.041Z,16.90
2018-09-03T19:06:13.915Z,15.67
2018-09-03T19:08:42.530Z,12.90
2018-09-03T19:11:11.635Z,11.97
2018-09-03T19:13:40.545Z,14.00
2018-09-03T19:16:09.220Z,15.17
2018-09-03T19:18:37.742Z,16.27
2018-09-03T19:21:06.391Z,15.53
2018-09-03T19:23:34.934Z,16.93
2018-09-03T19:26:03.902Z,16.57
2018-09-03T19:28:39.198Z,15.40
2018-09-03T19:31:08.052Z,14.60
2018-09-03T19:33:36.834Z,16.13
2018-09-03T19:36:05.544Z,16.97
2018-09-03T19:38:34.142Z,16.60
2018-09-03T19:41:02.689Z,20.13
2018-09-03T19:43:31.967Z,14.17
2018-09-03T19:46:00.614Z,17.23
2018-09-03T19:48:29.474Z,18.60
2018-09-03T19:50:58.081Z,20.10
2018-09-03T19:53:26.624Z,18.83
2018-09-03T19:55:55.169Z,22.07
2018-09-03T19:58:23.727Z,18.70
2018-09-03T20:00:52.585Z,20.30
2018-09-03T20:03:21.225Z,20.60
2018-09-03T20:05:50.039Z,20.03
2018-09-03T20:08:19.347Z,19.67
2018-09-03T20:10:47.984Z,22.67
2018-09-03T20:13:16.560Z,19.73
2018-09-03T20:15:45.246Z,22.30
2018-09-03T20:18:13.893Z,22.40
2018-09-03T20:20:43.076Z,22.93
2018-09-03T20:23:11.754Z,22.70
2018-09-03T20:25:41.063Z,24.03
2018-09-03T20:28:09.724Z,25.93
2018-09-03T20:30:38.450Z,18.70
2018-09-03T20:33:07.141Z,21.97
2018-09-03T20:35:35.789Z,21.73
2018-09-03T20:38:04.403Z,21.03
2018-09-03T20:40:33.058Z,21.70
2018-09-03T20:43:01.641Z,18.33
2018-09-03T20:45:30.203Z,16.90
2018-09-03T20:47:58.786Z,15.90
2018-09-03T20:50:27.423Z,17.20
2018-09-03T20:52:56.487Z,17.87
2018-09-03T20:55:25.147Z,17.73
2018-09-03T20:57:53.851Z,15.70
2018-09-03T21:00:25.339Z,16.40
2018-09-03T21:02:53.957Z,19.07
2018-09-03T21:05:22.578Z,16.70
2018-09-03T21:07:51.394Z,17.13
2018-09-03T21:10:20.187Z,17.87
2018-09-03T21:12:49.408Z,18.13
2018-09-03T21:15:17.944Z,18.43
2018-09-03T21:17:46.511Z,15.10
2018-09-03T21:20:15.249Z,14.93
2018-09-03T21:22:43.756Z,15.73
2018-09-03T21:25:12.329Z,19.80
2018-09-03T21:27:40.798Z,18.47
2018-09-03T21:30:09.546Z,16.13
2018-09-03T21:32:38.261Z,17.70
2018-09-03T21:35:07.379Z,15.30
2018-09-03T21:37:36.455Z,17.80
2018-09-03T21:40:06.331Z,17.63
2018-09-03T21:42:35.017Z,18.20
2018-09-03T21:45:03.886Z,18.53
2018-09-03T21:47:32.422Z,17.87
2018-09-03T21:50:00.994Z,19.07
2018-09-03T21:52:30.129Z,18.20
2018-09-03T21:54:58.906Z,18.70
2018-09-03T21:57:27.535Z,16.53
2018-09-03T21:59:56.514Z,19.13
2018-09-03T22:02:25.915Z,19.33
2018-09-03T22:04:55.280Z,21.13
2018-09-03T22:07:23.921Z,19.63
2018-09-03T22:09:53.179Z,21.60
2018-09-03T22:12:21.787Z,22.67
2018-09-03T22:14:50.489Z,23.03
2018-09-03T22:17:19.029Z,25.77
2018-09-03T22:19:47.591Z,22.13
2018-09-03T22:22:16.322Z,23.60
2018-09-03T22:24:44.938Z,26.27
2018-09-03T22:27:13.525Z,24.70
2018-09-03T22:29:42.113Z,25.93
2018-09-03T22:32:10.612Z,27.97
2018-09-03T22:34:40.772Z,31.83
2018-09-03T22:37:09.588Z,25.67
2018-09-03T22:39:38.562Z,27.40
2018-09-03T22:42:07.172Z,29.83
2018-09-03T22:44:36.209Z,28.40
2018-09-03T22:47:05.904Z,26.30
2018-09-03T22:49:34.565Z,29.13
2018-09-03T22:52:03.197Z,29.37
2018-09-03T22:54:31.806Z,31.17
2018-09-03T22:57:00.357Z,28.57
2018-09-03T22:59:29.193Z,29.83
2018-09-03T23:01:57.727Z,32.37
2018-09-03T23:04:26.206Z,32.33
2018-09-03T23:06:54.798Z,31.27
2018-09-03T23:09:23.515Z,32.27
2018-09-03T23:11:52.118Z,37.80
2018-09-03T23:14:20.612Z,32.43
2018-09-03T23:16:49.140Z,30.33
2018-09-03T23:19:18.248Z,36.63
2018-09-03T23:21:46.877Z,33.43
2018-09-03T23:24:16.113Z,34.70
2018-09-03T23:26:44.678Z,32.90
2018-09-03T23:29:13.329Z,36.57
2018-09-03T23:31:42.223Z,40.27
2018-09-03T23:34:10.781Z,39.90
2018-09-03T23:36:39.303Z,37.97
2018-09-03T23:39:07.949Z,37.87
2018-09-03T23:41:37.489Z,36.60
2018-09-03T23:44:06.280Z,32.80
2018-09-03T23:46:34.909Z,35.20
2018-09-03T23:49:03.526Z,38.10
2018-09-03T23:51:32.116Z,38.63
2018-09-03T23:54:00.737Z,38.63
2018-09-03T23:56:29.342Z,35.77
2018-09-03T23:58:57.925Z,36.67
